Time;durP1;ratioP1;P1;durP2;ratioP2;P2;SDS_P1;SDS_P2;PMS_P1;PMS_P2;Temp;Humidity;BMP_temperature;BMP_pressure;BME280_temperature;BME280_humidity;BME280_pressure;Samples;Min_cycle;Max_cycle;Signal;HPM_P1;HPM_P2
2023/02/10 00:00:09;;;;;;;19.80;12.10;;;-4.70;99.90;;;;;;4994879;28;20073;-82
2023/02/10 00:02:35;;;;;;;17.10;11.60;;;-4.70;99.90;;;;;;4992613;28;21429;-81
2023/02/10 00:05:01;;;;;;;11.45;10.32;;;-4.70;99.90;;;;;;4997971;28;20050;-81
2023/02/10 00:07:26;;;;;;;20.50;12.35;;;-4.70;99.90;;;;;;4996909;28;20099;-81
2023/02/10 00:09:52;;;;;;;13.63;10.07;;;-4.70;99.90;;;;;;4996826;28;20030;-81
2023/02/10 00:12:17;;;;;;;11.60;7.25;;;-4.80;99.90;;;;;;4996757;28;20578;-81
2023/02/10 00:14:43;;;;;;;18.48;8.32;;;-4.70;99.90;;;;;;4987525;28;20050;-81
2023/02/10 00:17:08;;;;;;;7.90;6.72;;;-4.70;99.90;;;;;;4996785;28;20031;-81
2023/02/10 00:19:34;;;;;;;16.88;11.82;;;-4.70;99.90;;;;;;4994455;28;20050;-81
2023/02/10 00:22:01;;;;;;;11.05;6.75;;;-4.70;99.90;;;;;;4997292;28;20026;-82
2023/02/10 00:24:27;;;;;;;13.13;7.88;;;-4.70;99.90;;;;;;4994638;28;20051;-81
2023/02/10 00:26:53;;;;;;;10.73;8.13;;;-4.80;99.90;;;;;;5006227;28;20078;-81
2023/02/10 00:29:19;;;;;;;16.50;9.88;;;-4.80;99.90;;;;;;4997483;28;20723;-81
2023/02/10 00:31:45;;;;;;;12.95;8.52;;;-4.90;99.90;;;;;;5003386;28;20057;-81
2023/02/10 00:34:13;;;;;;;17.67;6.72;;;-4.90;99.90;;;;;;5000808;28;20030;-84
2023/02/10 00:36:39;;;;;;;10.90;7.50;;;-5.00;99.90;;;;;;4996183;28;20129;-82
2023/02/10 00:39:04;;;;;;;18.88;11.00;;;-5.10;99.90;;;;;;5003433;28;20034;-82
2023/02/10 00:41:30;;;;;;;23.48;12.35;;;-5.00;99.90;;;;;;5002690;28;20037;-83
2023/02/10 00:43:55;;;;;;;17.10;11.70;;;-5.00;99.90;;;;;;4998330;28;20161;-81
2023/02/10 00:46:22;;;;;;;27.75;12.95;;;-4.90;99.90;;;;;;4996567;28;20505;-81
2023/02/10 00:48:49;;;;;;;28.55;13.40;;;-5.00;99.90;;;;;;5000187;28;20038;-82
2023/02/10 00:51:16;;;;;;;26.23;13.93;;;-5.10;99.90;;;;;;4994700;28;20058;-81
2023/02/10 00:53:42;;;;;;;17.48;9.60;;;-5.10;99.90;;;;;;4999082;28;20554;-81
2023/02/10 00:56:08;;;;;;;22.38;10.95;;;-5.10;99.90;;;;;;5001085;28;20061;-81
2023/02/10 00:58:34;;;;;;;21.08;11.80;;;-5.00;99.90;;;;;;5001298;28;20106;-82
2023/02/10 01:01:00;;;;;;;26.00;10.48;;;-5.00;99.90;;;;;;4995110;28;20050;-81
2023/02/10 01:03:25;;;;;;;20.48;10.85;;;-5.10;99.90;;;;;;4997172;28;20113;-82
2023/02/10 01:05:51;;;;;;;23.92;13.23;;;-5.10;99.90;;;;;;4992796;28;20033;-80
2023/02/10 01:08:17;;;;;;;23.45;12.65;;;-5.10;99.90;;;;;;4990506;28;20509;-81
2023/02/10 01:10:43;;;;;;;22.02;11.90;;;-5.00;99.90;;;;;;4995696;28;20109;-82
2023/02/10 01:13:10;;;;;;;21.08;11.63;;;-5.00;99.90;;;;;;5000756;28;20028;-81
2023/02/10 01:15:42;;;;;;;19.40;10.85;;;-5.00;99.90;;;;;;4994103;28;20030;-81
2023/02/10 01:18:07;;;;;;;16.23;6.82;;;-5.00;99.90;;;;;;4988846;28;20038;-81
2023/02/10 01:20:33;;;;;;;20.00;10.82;;;-5.00;99.90;;;;;;4995550;28;20089;-81
2023/02/10 01:22:58;;;;;;;17.25;9.70;;;-5.10;99.90;;;;;;4994725;28;20108;-81
2023/02/10 01:25:24;;;;;;;13.38;8.35;;;-5.10;99.90;;;;;;4995244;28;20034;-83
2023/02/10 01:27:49;;;;;;;6.25;3.97;;;-5.10;99.90;;;;;;5001649;28;20098;-81
2023/02/10 01:30:15;;;;;;;9.95;8.20;;;-5.10;99.90;;;;;;4994093;28;20395;-81
2023/02/10 01:32:41;;;;;;;8.35;7.47;;;-5.30;99.90;;;;;;4996220;28;20166;-81
2023/02/10 01:35:06;;;;;;;20.05;10.75;;;-5.40;99.90;;;;;;4998439;28;20038;-82
2023/02/10 01:37:33;;;;;;;10.15;7.38;;;-5.40;99.90;;;;;;4995162;28;20045;-82
2023/02/10 01:39:59;;;;;;;21.65;11.85;;;-5.40;99.90;;;;;;4998687;28;20109;-81
2023/02/10 01:42:24;;;;;;;4.53;4.20;;;-5.40;99.90;;;;;;5002515;28;20062;-81
2023/02/10 01:44:50;;;;;;;10.40;6.78;;;-5.60;99.90;;;;;;4999495;28;20034;-81
2023/02/10 01:47:16;;;;;;;7.75;6.88;;;-5.70;99.90;;;;;;4996765;28;20114;-80
2023/02/10 01:49:49;;;;;;;4.22;3.95;;;-5.70;99.90;;;;;;4995561;28;20044;-81
2023/02/10 01:52:19;;;;;;;10.20;6.20;;;-5.70;99.90;;;;;;4996704;28;20124;-81
2023/02/10 01:54:51;;;;;;;10.50;8.35;;;-5.70;99.90;;;;;;4995272;28;20105;-81
2023/02/10 01:57:17;;;;;;;14.88;8.05;;;-5.80;99.90;;;;;;4996943;28;20049;-81
2023/02/10 01:59:43;;;;;;;5.53;5.13;;;-5.80;99.90;;;;;;4996348;28;20077;-81
2023/02/10 02:02:11;;;;;;;11.07;6.32;;;-5.80;99.90;;;;;;4999683;28;20747;-81
2023/02/10 02:05:02;;;;;;;7.38;5.40;;;-5.90;99.90;;;;;;4997103;28;20034;-81
2023/02/10 02:07:30;;;;;;;6.43;5.35;;;-6.00;99.90;;;;;;4997779;28;20042;-81
2023/02/10 02:09:57;;;;;;;8.85;7.03;;;-5.90;99.90;;;;;;5002529;28;20103;-82
2023/02/10 02:12:36;;;;;;;11.93;7.38;;;-5.80;99.90;;;;;;4995068;28;20061;-80
2023/02/10 02:15:05;;;;;;;12.45;8.95;;;-5.70;99.90;;;;;;4989656;28;20035;-81
2023/02/10 02:18:18;;;;;;;11.18;9.43;;;-5.70;99.90;;;;;;4994314;28;20033;-81
2023/02/10 02:21:14;;;;;;;8.30;7.20;;;-5.60;99.90;;;;;;4965096;28;20039;-81
2023/02/10 02:24:16;;;;;;;13.38;8.30;;;-5.60;99.90;;;;;;4999333;28;20074;-81
2023/02/10 02:26:49;;;;;;;8.05;4.80;;;-5.60;99.90;;;;;;4998043;28;20038;-81
2023/02/10 02:29:32;;;;;;;5.90;5.32;;;-5.60;99.90;;;;;;5015791;28;20141;-80
2023/02/10 02:32:23;;;;;;;8.05;7.45;;;-5.70;99.90;;;;;;4997739;28;20453;-82
2023/02/10 02:34:53;;;;;;;6.75;5.97;;;-5.70;99.90;;;;;;4995547;28;20034;-81
2023/02/10 02:37:31;;;;;;;3.70;3.60;;;-5.70;99.90;;;;;;4992219;28;20038;-81
2023/02/10 02:39:57;;;;;;;17.38;10.77;;;-5.90;99.90;;;;;;4996191;28;20061;-81
2023/02/10 02:42:26;;;;;;;6.53;5.78;;;-6.10;99.90;;;;;;4998731;28;20034;-81
2023/02/10 02:44:58;;;;;;;3.92;2.85;;;-6.10;99.90;;;;;;5001297;28;20046;-81
2023/02/10 02:47:50;;;;;;;4.95;4.07;;;-6.30;99.90;;;;;;4997252;28;20034;-80
2023/02/10 02:50:35;;;;;;;4.25;3.95;;;-6.30;99.90;;;;;;4993907;28;20479;-81
2023/02/10 02:53:16;;;;;;;9.32;5.30;;;-6.30;99.90;;;;;;4996467;28;20053;-81
2023/02/10 02:55:48;;;;;;;8.30;5.72;;;-6.20;99.90;;;;;;4995337;28;20428;-79
2023/02/10 02:58:35;;;;;;;13.02;9.07;;;-6.20;99.90;;;;;;4995175;28;20077;-81
2023/02/10 03:01:07;;;;;;;8.93;7.47;;;-6.10;99.90;;;;;;4999442;28;20098;-81
2023/02/10 03:03:35;;;;;;;9.50;6.78;;;-6.10;99.90;;;;;;4999568;28;20046;-80
2023/02/10 03:06:01;;;;;;;9.43;4.30;;;-6.10;99.90;;;;;;4995782;28;20038;-82
2023/02/10 03:08:29;;;;;;;10.23;6.90;;;-6.10;99.90;;;;;;4998030;28;20034;-81
2023/02/10 03:10:55;;;;;;;20.27;8.05;;;-6.10;99.90;;;;;;4993791;28;20037;-81
2023/02/10 03:13:20;;;;;;;11.70;8.10;;;-6.20;99.90;;;;;;4999231;28;20038;-82
2023/02/10 03:15:46;;;;;;;14.70;8.07;;;-6.30;99.90;;;;;;5000390;28;20466;-81
2023/02/10 03:18:11;;;;;;;9.55;6.75;;;-6.20;99.90;;;;;;5003107;28;20045;-81
2023/02/10 03:20:38;;;;;;;12.55;7.97;;;-6.10;99.90;;;;;;5004071;28;20084;-81
2023/02/10 03:23:04;;;;;;;14.50;8.93;;;-6.20;99.90;;;;;;5005836;28;20033;-82
2023/02/10 03:25:30;;;;;;;12.68;5.57;;;-6.10;99.90;;;;;;4993412;28;20034;-81
2023/02/10 03:27:55;;;;;;;14.68;7.93;;;-6.10;99.90;;;;;;5003855;28;20076;-81
2023/02/10 03:30:21;;;;;;;14.98;8.40;;;-6.00;99.90;;;;;;4998481;28;20042;-81
2023/02/10 03:32:48;;;;;;;17.77;8.90;;;-6.00;99.90;;;;;;5000883;28;20703;-81
2023/02/10 03:35:14;;;;;;;14.88;8.85;;;-6.20;99.90;;;;;;4999605;28;20054;-81
2023/02/10 03:37:41;;;;;;;18.52;9.80;;;-6.30;99.90;;;;;;4995304;28;20049;-80
2023/02/10 03:40:07;;;;;;;16.30;10.48;;;-6.40;99.90;;;;;;4998745;28;20034;-81
2023/02/10 03:42:32;;;;;;;14.02;7.95;;;-6.30;99.90;;;;;;4994781;28;20030;-81
2023/02/10 03:44:58;;;;;;;14.15;10.10;;;-6.30;99.90;;;;;;4999213;28;20046;-82
2023/02/10 03:47:23;;;;;;;9.38;8.20;;;-6.30;99.90;;;;;;4995173;28;20034;-82
2023/02/10 03:49:49;;;;;;;15.00;9.45;;;-6.40;99.90;;;;;;5006981;28;20034;-82
2023/02/10 03:52:14;;;;;;;12.40;7.57;;;-6.30;99.90;;;;;;4998390;28;20061;-81
2023/02/10 03:54:40;;;;;;;15.07;9.40;;;-6.20;99.90;;;;;;4995149;28;20114;-81
2023/02/10 03:57:06;;;;;;;10.38;6.90;;;-6.10;99.90;;;;;;4992133;28;20061;-84
2023/02/10 03:59:33;;;;;;;6.95;5.53;;;-6.10;99.90;;;;;;4992190;28;20065;-81
2023/02/10 04:01:58;;;;;;;7.45;6.80;;;-6.10;99.90;;;;;;4996281;28;20101;-81
2023/02/10 04:04:24;;;;;;;17.42;9.65;;;-6.30;99.90;;;;;;4997322;28;20571;-81
2023/02/10 04:06:50;;;;;;;16.98;8.88;;;-6.20;99.90;;;;;;4993289;28;20038;-80
2023/02/10 04:09:15;;;;;;;11.13;7.72;;;-6.30;99.90;;;;;;4989875;28;20030;-80
2023/02/10 04:11:41;;;;;;;5.22;3.97;;;-6.20;99.90;;;;;;4993681;28;20062;-81
2023/02/10 04:14:06;;;;;;;14.20;8.98;;;-6.40;99.90;;;;;;5002217;28;20109;-81
2023/02/10 04:16:33;;;;;;;6.82;6.30;;;-6.50;99.90;;;;;;4996173;28;20053;-81
2023/02/10 04:18:59;;;;;;;5.55;5.15;;;-6.50;99.90;;;;;;4997937;28;20058;-82
2023/02/10 04:21:24;;;;;;;8.13;5.30;;;-6.50;99.90;;;;;;4997253;28;20050;-81
2023/02/10 04:23:51;;;;;;;5.25;4.85;;;-6.50;99.90;;;;;;4996428;28;20054;-81
2023/02/10 04:26:17;;;;;;;4.25;3.95;;;-6.60;99.90;;;;;;4990853;28;20145;-81
2023/02/10 04:28:42;;;;;;;12.18;6.57;;;-6.70;99.90;;;;;;4988743;28;20062;-82
2023/02/10 04:31:09;;;;;;;9.75;5.53;;;-6.80;99.90;;;;;;4995197;28;20038;-80
2023/02/10 04:33:36;;;;;;;6.70;5.45;;;-6.90;99.90;;;;;;4997145;28;21561;-80
2023/02/10 04:36:02;;;;;;;3.70;3.47;;;-6.90;99.90;;;;;;4996240;28;20030;-80
2023/02/10 04:38:29;;;;;;;3.70;3.50;;;-6.90;99.90;;;;;;5000707;28;20038;-80
2023/02/10 04:40:54;;;;;;;8.88;6.25;;;-7.00;99.90;;;;;;4995486;28;20050;-81
2023/02/10 04:43:20;;;;;;;5.78;5.20;;;-6.90;99.90;;;;;;4994183;28;20038;-80
2023/02/10 04:45:46;;;;;;;10.25;5.85;;;-6.90;99.90;;;;;;4993756;28;20031;-81
2023/02/10 04:48:13;;;;;;;4.45;2.53;;;-6.80;99.90;;;;;;4991340;28;20037;-80
2023/02/10 04:50:39;;;;;;;6.63;6.03;;;-6.70;99.90;;;;;;4995081;28;20042;-81
2023/02/10 04:53:06;;;;;;;10.07;8.38;;;-6.70;99.90;;;;;;4995247;28;20054;-81
2023/02/10 04:55:32;;;;;;;3.83;3.60;;;-6.70;99.90;;;;;;4994982;28;20030;-80
2023/02/10 04:57:57;;;;;;;2.70;2.60;;;-6.70;99.90;;;;;;5000302;28;20038;-82
2023/02/10 05:00:23;;;;;;;3.17;3.08;;;-6.80;99.90;;;;;;4994225;28;20042;-81
2023/02/10 05:02:49;;;;;;;2.60;2.42;;;-6.80;99.90;;;;;;5013683;28;20114;-80
2023/02/10 05:05:14;;;;;;;6.65;4.20;;;-6.80;99.90;;;;;;5015738;28;20158;-81
2023/02/10 05:07:40;;;;;;;3.97;3.67;;;-6.80;99.90;;;;;;5017189;28;20930;-81
2023/02/10 05:10:06;;;;;;;3.88;3.58;;;-6.80;99.90;;;;;;5012808;28;20103;-81
2023/02/10 05:12:31;;;;;;;4.60;4.30;;;-6.70;99.90;;;;;;5022530;28;20094;-81
2023/02/10 05:14:57;;;;;;;4.50;4.20;;;-6.80;99.90;;;;;;5018601;28;20069;-81
2023/02/10 05:17:22;;;;;;;3.20;2.97;;;-6.70;99.90;;;;;;5021348;28;20065;-81
2023/02/10 05:19:48;;;;;;;5.55;4.90;;;-6.80;99.90;;;;;;5021605;28;20091;-82
2023/02/10 05:22:14;;;;;;;7.57;4.88;;;-6.80;99.90;;;;;;5021546;28;20065;-80
2023/02/10 05:24:39;;;;;;;3.30;3.13;;;-6.80;99.90;;;;;;5017602;28;20038;-81
2023/02/10 05:27:05;;;;;;;1.63;1.63;;;-6.90;99.90;;;;;;5027784;28;20081;-81
2023/02/10 05:29:31;;;;;;;10.20;4.63;;;-7.10;99.90;;;;;;5020690;28;20037;-81
2023/02/10 05:31:56;;;;;;;6.28;5.70;;;-7.30;99.90;;;;;;5005683;28;20129;-80
2023/02/10 05:34:22;;;;;;;11.68;8.20;;;-7.30;99.90;;;;;;4993504;28;20038;-81
2023/02/10 05:36:48;;;;;;;9.88;6.05;;;-7.30;99.90;;;;;;4999397;28;20030;-81
2023/02/10 05:39:22;;;;;;;4.75;4.43;;;-7.30;99.90;;;;;;5000372;28;20050;-81
2023/02/10 05:41:51;;;;;;;9.07;5.70;;;-7.20;99.90;;;;;;4995758;28;20030;-81
2023/02/10 05:44:17;;;;;;;11.73;4.78;;;-7.10;99.90;;;;;;5004367;28;20054;-81
2023/02/10 05:46:43;;;;;;;4.32;4.03;;;-7.00;99.90;;;;;;5000814;28;20038;-81
2023/02/10 05:49:08;;;;;;;17.83;9.27;;;-6.90;99.90;;;;;;4997308;28;20049;-80
2023/02/10 05:51:34;;;;;;;9.85;6.47;;;-6.80;99.90;;;;;;4999517;28;20050;-81
2023/02/10 05:54:00;;;;;;;5.90;5.40;;;-6.80;99.90;;;;;;4998576;28;20089;-81
2023/02/10 05:56:25;;;;;;;5.88;5.47;;;-6.70;99.90;;;;;;5000351;28;20030;-81
2023/02/10 05:58:51;;;;;;;5.90;3.85;;;-6.80;99.90;;;;;;4991829;28;20454;-83
2023/02/10 06:01:17;;;;;;;8.85;6.60;;;-6.80;99.90;;;;;;4996310;28;20076;-81
2023/02/10 06:03:42;;;;;;;7.55;6.57;;;-6.80;99.90;;;;;;4998014;28;20038;-81
2023/02/10 06:06:08;;;;;;;5.13;4.70;;;-6.70;99.90;;;;;;4997640;28;20050;-81
2023/02/10 06:08:33;;;;;;;13.35;7.72;;;-6.70;99.90;;;;;;4997845;28;20026;-81
2023/02/10 06:10:59;;;;;;;3.53;3.33;;;-6.70;99.90;;;;;;4998160;28;20045;-81
2023/02/10 06:13:25;;;;;;;5.55;5.13;;;-6.70;99.90;;;;;;5000811;28;20037;-81
2023/02/10 06:15:50;;;;;;;13.27;7.20;;;-6.60;99.90;;;;;;4999729;28;20058;-81
2023/02/10 06:18:16;;;;;;;17.75;9.15;;;-6.70;99.90;;;;;;4992707;28;20160;-81
2023/02/10 06:20:41;;;;;;;6.47;3.53;;;-6.60;99.90;;;;;;5000778;28;20081;-81
2023/02/10 06:23:07;;;;;;;4.82;4.43;;;-6.70;99.90;;;;;;5002486;28;20113;-81
2023/02/10 06:25:35;;;;;;;3.97;3.17;;;-6.90;99.90;;;;;;5002558;28;20174;-81
2023/02/10 06:28:01;;;;;;;9.75;8.70;;;-7.00;99.90;;;;;;4997047;28;20042;-82
2023/02/10 06:30:26;;;;;;;13.02;7.43;;;-7.10;99.90;;;;;;4994869;28;20043;-81
2023/02/10 06:32:52;;;;;;;12.57;8.10;;;-7.00;99.90;;;;;;4994871;28;20046;-82
2023/02/10 06:35:18;;;;;;;7.40;5.72;;;-7.00;99.90;;;;;;4997055;28;20097;-80
2023/02/10 06:37:43;;;;;;;6.03;5.05;;;-6.90;99.90;;;;;;4992438;28;20035;-81
2023/02/10 06:40:10;;;;;;;14.18;9.13;;;-7.00;99.90;;;;;;5000307;28;20054;-81
2023/02/10 06:42:35;;;;;;;15.50;6.32;;;-7.00;99.90;;;;;;4998628;28;20041;-81
2023/02/10 06:45:01;;;;;;;8.38;6.40;;;-6.90;99.90;;;;;;4996714;28;20402;-81
2023/02/10 06:47:26;;;;;;;3.97;3.72;;;-6.90;99.90;;;;;;4997715;28;20029;-80
2023/02/10 06:49:52;;;;;;;11.50;4.00;;;-6.90;99.90;;;;;;4995133;28;20082;-80
2023/02/10 06:52:18;;;;;;;3.83;3.55;;;-6.90;99.90;;;;;;4995356;28;20117;-80
2023/02/10 06:54:44;;;;;;;5.13;4.00;;;-6.90;99.90;;;;;;4999931;28;20061;-80
2023/02/10 06:57:10;;;;;;;2.75;2.65;;;-7.00;99.90;;;;;;4993646;28;20126;-81
2023/02/10 06:59:36;;;;;;;4.93;4.55;;;-7.10;99.90;;;;;;4994434;28;20046;-81
2023/02/10 07:02:02;;;;;;;3.30;3.20;;;-7.00;99.90;;;;;;4998852;28;20525;-81
2023/02/10 07:04:29;;;;;;;8.60;6.00;;;-7.10;99.90;;;;;;4997331;28;20034;-80
2023/02/10 07:06:55;;;;;;;3.20;2.17;;;-7.10;99.90;;;;;;5000530;28;20034;-81
2023/02/10 07:09:21;;;;;;;7.82;5.60;;;-7.10;99.90;;;;;;4992571;28;20039;-81
2023/02/10 07:11:47;;;;;;;10.73;5.90;;;-7.00;99.90;;;;;;4979080;28;20034;-81
2023/02/10 07:14:12;;;;;;;4.18;3.88;;;-7.00;99.90;;;;;;4981418;28;20140;-82
2023/02/10 07:16:38;;;;;;;3.03;1.88;;;-7.00;99.90;;;;;;4984456;28;20042;-82
2023/02/10 07:19:04;;;;;;;15.38;6.72;;;-7.00;99.90;;;;;;4984362;28;20042;-82
2023/02/10 07:21:29;;;;;;;5.95;5.25;;;-7.00;99.90;;;;;;4984081;28;20921;-82
2023/02/10 07:23:55;;;;;;;1.83;1.83;;;-7.00;99.90;;;;;;4985544;28;20022;-82
2023/02/10 07:26:21;;;;;;;5.38;4.35;;;-6.90;99.90;;;;;;4993747;28;20486;-82
2023/02/10 07:28:46;;;;;;;3.33;3.15;;;-6.80;99.90;;;;;;4993877;28;20030;-81
2023/02/10 07:31:12;;;;;;;6.68;5.68;;;-6.80;99.90;;;;;;5004235;28;20053;-81
2023/02/10 07:33:38;;;;;;;10.90;4.45;;;-6.70;99.90;;;;;;5000378;28;20061;-81
2023/02/10 07:36:05;;;;;;;6.05;5.30;;;-6.60;99.90;;;;;;4999547;28;20029;-82
2023/02/10 07:38:31;;;;;;;6.65;6.00;;;-6.60;99.90;;;;;;4999136;28;20035;-81
2023/02/10 07:40:58;;;;;;;13.55;7.50;;;-6.50;99.90;;;;;;5004055;28;20074;-82
2023/02/10 07:43:24;;;;;;;13.15;8.45;;;-6.40;99.90;;;;;;4990748;28;20039;-81
2023/02/10 07:45:52;;;;;;;9.32;6.85;;;-6.40;99.90;;;;;;4999693;28;20156;-81
2023/02/10 07:48:18;;;;;;;;;;;-6.30;99.90;;;;;;5003262;28;20042;-82
2023/02/10 07:50:44;;;;;;;7.68;5.20;;;-6.20;99.90;;;;;;4999633;28;19922;-81
2023/02/10 07:53:10;;;;;;;4.28;3.63;;;-6.10;99.90;;;;;;4999869;28;20054;-82
2023/02/10 07:55:39;;;;;;;2.58;2.47;;;-6.00;99.90;;;;;;5002867;28;20041;-82
2023/02/10 07:58:05;;;;;;;10.18;4.57;;;-5.90;99.90;;;;;;4999630;28;20046;-81
2023/02/10 08:00:31;;;;;;;6.65;6.03;;;-5.80;99.90;;;;;;4993938;28;20189;-81
2023/02/10 08:02:57;;;;;;;5.82;5.47;;;-5.70;99.90;;;;;;4997752;28;20069;-82
2023/02/10 08:05:22;;;;;;;16.60;8.13;;;-5.70;99.90;;;;;;4991001;28;20039;-81
2023/02/10 08:07:49;;;;;;;1.50;1.50;;;-5.60;99.90;;;;;;4998372;28;20035;-82
2023/02/10 08:10:15;;;;;;;2.22;2.13;;;-5.40;99.90;;;;;;4997851;28;20045;-82
2023/02/10 08:12:40;;;;;;;4.32;3.92;;;-5.30;99.90;;;;;;5002198;28;20042;-81
2023/02/10 08:15:07;;;;;;;2.78;2.67;;;-5.20;99.90;;;;;;4996791;28;20027;-82
2023/02/10 08:17:33;;;;;;;5.28;4.82;;;-5.00;99.90;;;;;;5002463;28;20548;-82
2023/02/10 08:19:59;;;;;;;5.53;4.20;;;-4.90;99.90;;;;;;4994082;28;20046;-81
2023/02/10 08:22:25;;;;;;;9.38;4.13;;;-4.80;99.90;;;;;;5001085;28;20065;-81
2023/02/10 08:24:50;;;;;;;2.95;2.90;;;-4.70;99.90;;;;;;5002273;28;20054;-81
2023/02/10 08:27:16;;;;;;;10.65;7.47;;;-4.60;99.90;;;;;;5004181;28;20044;-81
2023/02/10 08:29:42;;;;;;;10.18;7.10;;;-4.50;99.90;;;;;;5012816;28;20046;-82
2023/02/10 08:32:08;;;;;;;11.13;7.03;;;-4.30;99.90;;;;;;5001658;28;20053;-82
2023/02/10 08:34:33;;;;;;;4.10;3.70;;;-4.30;99.90;;;;;;4992751;28;20062;-82
2023/02/10 08:36:59;;;;;;;2.88;2.70;;;-4.20;99.90;;;;;;4996877;28;20046;-82
2023/02/10 08:39:28;;;;;;;3.15;2.13;;;-4.10;99.90;;;;;;4999585;28;20042;-82
2023/02/10 08:41:54;;;;;;;7.90;6.40;;;-4.10;99.90;;;;;;4992773;28;20130;-82
2023/02/10 08:44:20;;;;;;;3.20;3.00;;;-4.00;99.90;;;;;;5000521;28;20034;-82
2023/02/10 08:46:45;;;;;;;4.38;3.92;;;-3.80;99.90;;;;;;5006545;28;20610;-82
2023/02/10 08:49:11;;;;;;;4.85;4.47;;;-3.60;99.90;;;;;;5005166;28;20043;-82
2023/02/10 08:51:38;;;;;;;7.82;3.72;;;-3.50;99.90;;;;;;5001746;28;20050;-82
2023/02/10 08:54:05;;;;;;;9.88;6.38;;;-3.40;99.90;;;;;;4999881;28;20029;-82
2023/02/10 08:56:30;;;;;;;6.15;5.45;;;-3.20;99.90;;;;;;5015363;28;20035;-83
2023/02/10 08:58:56;;;;;;;15.90;6.95;;;-3.10;99.90;;;;;;4993816;28;20038;-82
2023/02/10 09:01:27;;;;;;;11.88;7.70;;;-3.00;99.90;;;;;;4999940;28;20097;-82
2023/02/10 09:03:54;;;;;;;9.20;5.53;;;-2.80;99.90;;;;;;5003792;28;20669;-82
2023/02/10 09:06:27;;;;;;;8.10;6.32;;;-2.70;99.90;;;;;;4999977;28;20085;-82
2023/02/10 09:08:53;;;;;;;14.02;8.95;;;-2.60;99.90;;;;;;5001852;28;20034;-82
2023/02/10 09:11:23;;;;;;;9.52;7.07;;;-2.40;99.90;;;;;;4999260;28;20049;-82
2023/02/10 09:13:49;;;;;;;3.85;3.63;;;-2.30;99.90;;;;;;5002749;28;20031;-83
2023/02/10 09:16:15;;;;;;;4.93;4.55;;;-2.10;99.90;;;;;;5002320;28;20038;-83
2023/02/10 09:18:40;;;;;;;5.38;4.85;;;-2.10;99.90;;;;;;5005032;28;20108;-83
2023/02/10 09:21:06;;;;;;;10.23;6.00;;;-1.90;99.90;;;;;;5004992;28;20049;-82
2023/02/10 09:23:32;;;;;;;3.75;3.47;;;-1.80;99.90;;;;;;4999475;28;20065;-83
2023/02/10 09:25:59;;;;;;;8.45;5.63;;;-1.70;99.90;;;;;;4999130;28;20093;-83
2023/02/10 09:28:26;;;;;;;6.43;4.93;;;-1.50;99.90;;;;;;5005481;28;20065;-84
2023/02/10 09:30:51;;;;;;;17.85;9.50;;;-1.40;99.90;;;;;;4997702;28;20373;-83
2023/02/10 09:33:17;;;;;;;12.20;8.45;;;-1.20;99.90;;;;;;5005414;28;20039;-84
2023/02/10 09:35:43;;;;;;;6.13;5.38;;;-1.10;99.90;;;;;;5001025;28;20042;-84
2023/02/10 09:38:11;;;;;;;8.93;5.47;;;-1.00;99.90;;;;;;5004423;28;20030;-84
2023/02/10 09:41:18;;;;;;;11.90;5.60;;;-0.90;99.90;;;;;;5003848;28;20043;-83
2023/02/10 09:44:14;;;;;;;10.40;8.32;;;-0.80;99.90;;;;;;5000580;28;20022;-84
2023/02/10 09:46:51;;;;;;;3.50;3.30;;;-0.70;99.90;;;;;;5007301;28;20045;-85
2023/02/10 09:49:30;;;;;;;11.10;8.77;;;-0.60;99.90;;;;;;5009180;28;20041;-84
2023/02/10 09:52:08;;;;;;;6.78;4.97;;;-0.40;99.90;;;;;;5003536;28;20078;-84
2023/02/10 09:54:35;;;;;;;15.47;9.20;;;-0.40;99.90;;;;;;4997810;28;20120;-83
2023/02/10 09:57:11;;;;;;;8.73;6.25;;;-0.30;99.90;;;;;;5000270;28;20041;-84
2023/02/10 09:59:38;;;;;;;11.50;6.57;;;-0.20;99.90;;;;;;5017118;28;20026;-83
2023/02/10 10:02:17;;;;;;;5.47;4.43;;;-0.10;99.90;;;;;;5007475;28;20642;-84
2023/02/10 10:04:44;;;;;;;11.10;7.25;;;0.10;99.90;;;;;;5016871;28;20042;-85
2023/02/10 10:07:35;;;;;;;15.70;8.90;;;0.30;99.90;;;;;;5009243;28;20062;-84
2023/02/10 10:10:20;;;;;;;17.23;9.00;;;0.30;99.90;;;;;;4994410;28;20042;-84
2023/02/10 10:12:46;;;;;;;19.02;8.90;;;0.40;99.90;;;;;;5004028;28;20038;-85
2023/02/10 10:15:17;;;;;;;14.73;9.98;;;0.40;99.90;;;;;;5002245;28;20086;-85
2023/02/10 10:18:14;;;;;;;10.63;6.72;;;0.50;99.90;;;;;;5000166;28;20062;-84
2023/02/10 10:21:25;;;;;;;7.60;5.90;;;0.60;99.90;;;;;;5000317;28;20102;-85
2023/02/10 10:24:06;;;;;;;3.92;3.30;;;0.70;99.90;;;;;;5005168;28;20069;-83
2023/02/10 10:27:00;;;;;;;7.35;4.95;;;0.80;99.90;;;;;;5000844;28;20026;-84
2023/02/10 10:30:00;;;;;;;5.32;4.38;;;0.90;99.90;;;;;;5007017;28;20109;-85
2023/02/10 10:32:45;;;;;;;13.85;7.80;;;0.90;99.90;;;;;;5023719;28;20049;-84
2023/02/10 10:35:23;;;;;;;14.52;8.35;;;0.90;99.90;;;;;;5002592;28;20038;-83
2023/02/10 10:37:49;;;;;;;6.45;5.22;;;1.00;99.90;;;;;;5008806;28;20042;-84
2023/02/10 10:40:24;;;;;;;21.45;9.95;;;1.00;99.90;;;;;;5010623;28;20051;-86
2023/02/10 10:42:59;;;;;;;12.65;9.07;;;1.00;99.90;;;;;;5008641;28;20094;-86
2023/02/10 10:45:42;;;;;;;16.75;9.85;;;1.10;99.90;;;;;;5018384;28;20030;-85
2023/02/10 10:48:27;;;;;;;16.98;8.45;;;1.20;99.90;;;;;;5005966;28;20027;-86
2023/02/10 10:50:59;;;;;;;20.10;11.73;;;1.30;99.90;;;;;;5022758;28;20393;-86
2023/02/10 10:53:43;;;;;;;15.32;10.40;;;1.30;99.90;;;;;;5008476;28;20090;-87
2023/02/10 10:56:15;;;;;;;18.50;9.63;;;1.40;99.90;;;;;;5021195;28;20033;-85
2023/02/10 10:58:44;;;;;;;11.43;6.28;;;1.30;99.90;;;;;;5013632;28;20053;-86
2023/02/10 11:01:13;;;;;;;16.05;9.98;;;1.40;99.90;;;;;;4994456;28;20034;-85
2023/02/10 11:03:41;;;;;;;26.13;13.20;;;1.50;99.90;;;;;;5041304;28;20030;-86
2023/02/10 11:06:15;;;;;;;21.25;10.80;;;1.50;99.90;;;;;;5034168;28;20026;-86
2023/02/10 11:08:57;;;;;;;25.95;11.23;;;1.50;99.90;;;;;;5030497;28;20041;-86
2023/02/10 11:11:37;;;;;;;13.13;9.25;;;1.50;99.90;;;;;;5024492;28;20061;-86
2023/02/10 11:14:19;;;;;;;26.52;14.15;;;1.60;99.90;;;;;;5031521;28;20020;-87
2023/02/10 11:16:52;;;;;;;27.60;13.75;;;1.60;99.90;;;;;;5026752;28;20026;-87
2023/02/10 11:19:27;;;;;;;29.02;14.75;;;1.60;99.90;;;;;;5026795;28;20045;-86
2023/02/10 11:21:53;;;;;;;14.63;9.07;;;1.70;99.90;;;;;;5025475;28;20018;-88
2023/02/10 11:24:28;;;;;;;17.77;9.55;;;1.80;99.90;;;;;;5029192;28;20034;-86
2023/02/10 11:27:17;;;;;;;22.30;13.20;;;1.80;99.90;;;;;;5042931;28;20038;-86
2023/02/10 11:29:57;;;;;;;24.30;13.45;;;1.90;99.90;;;;;;5016308;28;20038;-86
2023/02/10 11:32:26;;;;;;;26.02;12.52;;;2.00;99.90;;;;;;5000146;28;20066;-86
2023/02/10 11:34:57;;;;;;;23.30;12.45;;;2.00;99.90;;;;;;5008869;28;20537;-86
2023/02/10 11:37:35;;;;;;;30.75;14.07;;;2.00;99.90;;;;;;5005640;28;20053;-86
2023/02/10 11:40:02;;;;;;;;;;;2.10;99.90;;;;;;4999862;28;20045;-87
2023/02/10 11:42:32;;;;;;;25.52;11.32;;;2.10;99.90;;;;;;4996074;28;19913;-86
2023/02/10 11:45:18;;;;;;;27.85;12.73;;;2.20;99.90;;;;;;5002339;28;20045;-89
2023/02/10 11:47:45;;;;;;;14.85;7.97;;;2.30;99.90;;;;;;4999445;28;20026;-90
2023/02/10 11:50:24;;;;;;;24.23;9.73;;;2.50;99.90;;;;;;5003684;28;20088;-90
2023/02/10 11:52:50;;;;;;;9.02;7.38;;;2.50;99.90;;;;;;4999362;28;20105;-89
2023/02/10 11:55:16;;;;;;;14.48;8.50;;;2.60;99.70;;;;;;4996493;28;20043;-90
2023/02/10 12:01:01;;;;;;;12.77;6.70;;;2.70;99.90;;;;;;4993330;28;20129;-88
2023/02/10 12:03:48;;;;;;;11.20;7.28;;;2.80;99.90;;;;;;4981238;28;20043;-89
2023/02/10 12:06:39;;;;;;;8.38;7.13;;;2.80;97.30;;;;;;4993992;28;20117;-89
2023/02/10 12:09:41;;;;;;;5.47;4.05;;;2.80;99.90;;;;;;5019140;28;20030;-90
2023/02/10 12:12:54;;;;;;;10.07;8.73;;;2.90;97.30;;;;;;5004541;28;20717;-89
2023/02/10 12:15:41;;;;;;;16.50;9.32;;;3.00;99.30;;;;;;4976446;28;20058;-95
2023/02/10 12:18:38;;;;;;;14.93;9.10;;;3.00;97.90;;;;;;4985658;28;20042;-89
2023/02/10 12:21:04;;;;;;;32.25;13.10;;;3.10;99.90;;;;;;4990239;28;20038;-89
2023/02/10 12:23:35;;;;;;;22.90;11.77;;;2.90;99.00;;;;;;4993583;28;20102;-90
2023/02/10 12:26:25;;;;;;;11.80;7.88;;;2.90;99.90;;;;;;4988598;28;20038;-90
2023/02/10 12:29:02;;;;;;;12.02;8.82;;;3.10;99.90;;;;;;4994280;28;20038;-92
2023/02/10 12:31:44;;;;;;;23.97;13.60;;;3.30;97.50;;;;;;4989900;28;20049;-94
2023/02/10 12:34:22;;;;;;;27.75;13.48;;;3.20;99.90;;;;;;4993403;28;20055;-93
2023/02/10 12:37:06;;;;;;;22.73;10.52;;;3.30;99.90;;;;;;4992970;28;20037;-93
2023/02/10 12:39:56;;;;;;;17.73;10.18;;;3.20;98.00;;;;;;4998889;28;20049;-93
2023/02/10 12:42:32;;;;;;;25.05;12.82;;;3.20;99.50;;;;;;4960852;28;20494;-93
2023/02/10 12:45:34;;;;;;;13.63;8.15;;;3.20;99.40;;;;;;4994397;28;20038;-93
2023/02/10 12:48:25;;;;;;;23.00;11.80;;;3.40;99.70;;;;;;4990613;28;20035;-92
2023/02/10 12:50:59;;;;;;;21.02;10.70;;;3.40;98.20;;;;;;4992513;28;20056;-92
2023/02/10 12:53:32;;;;;;;12.88;5.30;;;3.40;98.10;;;;;;4996614;28;20030;-92
2023/02/10 12:56:22;;;;;;;18.40;8.40;;;3.50;97.50;;;;;;4995388;28;20041;-92
2023/02/10 12:58:55;;;;;;;10.18;5.70;;;3.50;98.00;;;;;;4989705;28;20273;-93
2023/02/10 13:01:35;;;;;;;21.85;12.43;;;3.60;95.90;;;;;;4991136;28;20046;-91